Aérodrome :
LOGIN :

S'inscrire | Disclaimer

   EN    FR    IT 

 










Légende :    VFR   VFR Marginal   IFR   IFR Intensif   IFR Très Intensif
Visi : 
Plafond : 
>= 8 km
>= 3000ft
5 à 8 km
1000 à 3000 ft
1500m à 5 km
500 à 1000 ft
800 à 1500m
200 à 500 ft
< 800m
< 200 ft
Symboles :   Orages  Brouillard  Fortes neiges  Fortes précipitations  Vent > 20 kt
SIGMETs :   Divers  Orages  Givrage  Turbulence  Onde Orograph.  Cendres Volcan.







- Altitude de l'aérodrome : 194 ft
- Code IATA : ANE
- Voir les cartes d'approche


LFJR - Angers Marcé

DERNIER METAR :
  • 260600Z AUTO 35004KT CAVOK 00/M02 Q1015 NOSIG

METARs EXPIRÉS :
  • 260530Z AUTO 35005KT CAVOK M01/M02 Q1014 NOSIG
  • 260500Z AUTO 34004KT CAVOK M02/M03 Q1014
  • 260430Z AUTO 33003KT CAVOK M02/M04 Q1014
  • 260400Z AUTO 34003KT CAVOK M02/M04 Q1014
  • 260330Z AUTO 34004KT CAVOK M01/M03 Q1014
  • 260300Z AUTO 34003KT CAVOK M01/M03 Q1014

TAF TAF LFJR
Valide du 26 à 06h jusqu'au 26 à 15h UTC


260500Z 2606/2615 01008KT CAVOK
TEMPO 2610/2615 4000 SHRA SCT025CB
PROB40 2611/2615 36010G25KT SHRAGS
Pas de NOTAMs connus pour ce terrain.



MET'MAP, la Météo Aéronautique d'un coup d'oeil ! - Copyright ORBIFLY Décembre 2007 - Disclaimer

ORBIFLY MET'MAP TEAM :

Programmation & Développement : Alexandra Zaïnal
Conception & Développement : Baudouin d'Aumeries
Co-Programmation & Développement : Marc-Olivier Méhu
Soutien technique & logistique : Manuel Goepfert

Contact : metmap@orbifly.com




SOURCES & CREDITS :

   NOAA